sensor_id;sensor_type;location;lat;lon;timestamp;P1;durP1;ratioP1;P2;durP2;ratioP2
77111;SDS011;66064;50.226;14.344;2023-09-18T00:01:17;11.32;;;10.13;;
77111;SDS011;66064;50.226;14.344;2023-09-18T00:03:45;11.45;;;10.35;;
77111;SDS011;66064;50.226;14.344;2023-09-18T00:06:12;14.90;;;13.13;;
77111;SDS011;66064;50.226;14.344;2023-09-18T00:08:39;12.10;;;10.90;;
77111;SDS011;66064;50.226;14.344;2023-09-18T00:11:05;12.75;;;11.55;;
77111;SDS011;66064;50.226;14.344;2023-09-18T00:13:33;11.70;;;10.50;;
77111;SDS011;66064;50.226;14.344;2023-09-18T00:15:59;11.82;;;10.73;;
77111;SDS011;66064;50.226;14.344;2023-09-18T00:18:27;11.98;;;10.88;;
77111;SDS011;66064;50.226;14.344;2023-09-18T00:20:52;11.73;;;10.65;;
77111;SDS011;66064;50.226;14.344;2023-09-18T00:23:26;12.38;;;11.15;;
77111;SDS011;66064;50.226;14.344;2023-09-18T00:25:52;13.63;;;12.20;;
77111;SDS011;66064;50.226;14.344;2023-09-18T00:28:24;14.40;;;11.13;;
77111;SDS011;66064;50.226;14.344;2023-09-18T00:30:50;15.43;;;12.40;;
77111;SDS011;66064;50.226;14.344;2023-09-18T00:33:18;14.85;;;12.32;;
77111;SDS011;66064;50.226;14.344;2023-09-18T00:35:49;13.02;;;11.70;;
77111;SDS011;66064;50.226;14.344;2023-09-18T00:38:16;12.60;;;11.48;;
77111;SDS011;66064;50.226;14.344;2023-09-18T00:40:42;11.85;;;10.75;;
77111;SDS011;66064;50.226;14.344;2023-09-18T00:43:09;9.88;;;8.77;;
77111;SDS011;66064;50.226;14.344;2023-09-18T00:45:38;11.85;;;10.63;;
77111;SDS011;66064;50.226;14.344;2023-09-18T00:48:11;13.05;;;11.65;;
77111;SDS011;66064;50.226;14.344;2023-09-18T00:50:39;12.85;;;11.60;;
77111;SDS011;66064;50.226;14.344;2023-09-18T00:53:07;13.40;;;12.10;;
77111;SDS011;66064;50.226;14.344;2023-09-18T00:55:35;14.15;;;12.50;;
77111;SDS011;66064;50.226;14.344;2023-09-18T00:58:09;14.65;;;13.15;;
77111;SDS011;66064;50.226;14.344;2023-09-18T01:00:36;13.32;;;12.00;;
77111;SDS011;66064;50.226;14.344;2023-09-18T01:03:04;12.57;;;11.40;;
77111;SDS011;66064;50.226;14.344;2023-09-18T01:05:33;14.30;;;13.00;;
77111;SDS011;66064;50.226;14.344;2023-09-18T01:08:01;12.82;;;11.57;;
77111;SDS011;66064;50.226;14.344;2023-09-18T01:10:30;13.02;;;11.82;;
77111;SDS011;66064;50.226;14.344;2023-09-18T01:15:48;12.73;;;10.77;;
77111;SDS011;66064;50.226;14.344;2023-09-18T01:18:18;14.48;;;13.18;;
77111;SDS011;66064;50.226;14.344;2023-09-18T01:20:44;11.73;;;9.95;;
77111;SDS011;66064;50.226;14.344;2023-09-18T01:23:11;13.82;;;12.63;;
77111;SDS011;66064;50.226;14.344;2023-09-18T01:25:37;13.13;;;11.93;;
77111;SDS011;66064;50.226;14.344;2023-09-18T01:28:04;13.65;;;12.35;;
77111;SDS011;66064;50.226;14.344;2023-09-18T01:30:30;14.77;;;11.88;;
77111;SDS011;66064;50.226;14.344;2023-09-18T01:32:58;14.52;;;13.10;;
77111;SDS011;66064;50.226;14.344;2023-09-18T01:35:25;13.75;;;12.55;;
77111;SDS011;66064;50.226;14.344;2023-09-18T01:37:56;17.30;;;13.32;;
77111;SDS011;66064;50.226;14.344;2023-09-18T01:40:24;16.08;;;14.45;;
77111;SDS011;66064;50.226;14.344;2023-09-18T01:42:51;15.93;;;14.30;;
77111;SDS011;66064;50.226;14.344;2023-09-18T01:45:18;15.30;;;13.80;;
77111;SDS011;66064;50.226;14.344;2023-09-18T01:47:45;17.83;;;15.60;;
77111;SDS011;66064;50.226;14.344;2023-09-18T01:50:12;17.98;;;16.08;;
77111;SDS011;66064;50.226;14.344;2023-09-18T01:52:39;16.00;;;14.30;;
77111;SDS011;66064;50.226;14.344;2023-09-18T01:55:06;17.73;;;15.93;;
77111;SDS011;66064;50.226;14.344;2023-09-18T01:57:33;16.17;;;14.45;;
77111;SDS011;66064;50.226;14.344;2023-09-18T01:59:59;16.92;;;15.13;;
77111;SDS011;66064;50.226;14.344;2023-09-18T02:02:26;17.13;;;15.30;;
77111;SDS011;66064;50.226;14.344;2023-09-18T02:04:53;18.33;;;16.42;;
77111;SDS011;66064;50.226;14.344;2023-09-18T02:07:20;17.05;;;15.35;;
77111;SDS011;66064;50.226;14.344;2023-09-18T02:09:46;19.08;;;15.98;;
77111;SDS011;66064;50.226;14.344;2023-09-18T02:14:54;17.55;;;15.48;;
77111;SDS011;66064;50.226;14.344;2023-09-18T02:17:23;16.15;;;14.52;;
77111;SDS011;66064;50.226;14.344;2023-09-18T02:19:49;17.50;;;15.18;;
77111;SDS011;66064;50.226;14.344;2023-09-18T02:22:15;17.40;;;15.68;;
77111;SDS011;66064;50.226;14.344;2023-09-18T02:24:41;18.52;;;15.20;;
77111;SDS011;66064;50.226;14.344;2023-09-18T02:27:07;17.90;;;16.17;;
77111;SDS011;66064;50.226;14.344;2023-09-18T02:29:33;17.50;;;13.82;;
77111;SDS011;66064;50.226;14.344;2023-09-18T02:32:00;17.13;;;15.40;;
77111;SDS011;66064;50.226;14.344;2023-09-18T02:34:26;15.85;;;13.73;;
77111;SDS011;66064;50.226;14.344;2023-09-18T02:36:52;16.52;;;14.75;;
77111;SDS011;66064;50.226;14.344;2023-09-18T02:39:18;16.73;;;15.00;;
77111;SDS011;66064;50.226;14.344;2023-09-18T02:41:50;14.82;;;13.32;;
77111;SDS011;66064;50.226;14.344;2023-09-18T02:44:16;18.02;;;16.33;;
77111;SDS011;66064;50.226;14.344;2023-09-18T02:46:43;17.30;;;15.55;;
77111;SDS011;66064;50.226;14.344;2023-09-18T02:49:08;16.20;;;14.50;;
77111;SDS011;66064;50.226;14.344;2023-09-18T02:51:35;21.55;;;17.20;;
77111;SDS011;66064;50.226;14.344;2023-09-18T02:54:02;20.58;;;18.48;;
77111;SDS011;66064;50.226;14.344;2023-09-18T02:56:30;19.20;;;17.05;;
77111;SDS011;66064;50.226;14.344;2023-09-18T02:58:58;19.52;;;16.10;;
77111;SDS011;66064;50.226;14.344;2023-09-18T03:01:24;17.88;;;16.08;;
77111;SDS011;66064;50.226;14.344;2023-09-18T03:03:51;18.38;;;16.48;;
77111;SDS011;66064;50.226;14.344;2023-09-18T03:06:18;21.02;;;16.88;;
77111;SDS011;66064;50.226;14.344;2023-09-18T03:08:44;18.02;;;15.32;;
77111;SDS011;66064;50.226;14.344;2023-09-18T03:11:11;18.60;;;16.25;;
77111;SDS011;66064;50.226;14.344;2023-09-18T03:13:42;17.48;;;15.57;;
77111;SDS011;66064;50.226;14.344;2023-09-18T03:16:11;19.85;;;17.75;;
77111;SDS011;66064;50.226;14.344;2023-09-18T03:18:38;19.25;;;17.13;;
77111;SDS011;66064;50.226;14.344;2023-09-18T03:21:05;19.02;;;17.02;;
77111;SDS011;66064;50.226;14.344;2023-09-18T03:23:31;17.40;;;15.52;;
77111;SDS011;66064;50.226;14.344;2023-09-18T03:25:57;19.63;;;17.73;;
77111;SDS011;66064;50.226;14.344;2023-09-18T03:28:25;18.80;;;16.75;;
77111;SDS011;66064;50.226;14.344;2023-09-18T03:30:52;19.75;;;17.35;;
77111;SDS011;66064;50.226;14.344;2023-09-18T03:33:18;19.40;;;17.23;;
77111;SDS011;66064;50.226;14.344;2023-09-18T03:35:48;18.35;;;16.45;;
77111;SDS011;66064;50.226;14.344;2023-09-18T03:38:17;18.45;;;14.85;;
77111;SDS011;66064;50.226;14.344;2023-09-18T03:40:44;19.40;;;17.40;;
77111;SDS011;66064;50.226;14.344;2023-09-18T03:43:10;16.95;;;14.48;;
77111;SDS011;66064;50.226;14.344;2023-09-18T03:45:40;19.35;;;17.35;;
77111;SDS011;66064;50.226;14.344;2023-09-18T03:48:09;19.75;;;17.73;;
77111;SDS011;66064;50.226;14.344;2023-09-18T03:50:36;20.77;;;18.58;;
77111;SDS011;66064;50.226;14.344;2023-09-18T03:53:04;18.73;;;16.35;;
77111;SDS011;66064;50.226;14.344;2023-09-18T03:55:31;17.70;;;14.15;;
77111;SDS011;66064;50.226;14.344;2023-09-18T03:57:57;18.50;;;16.42;;
77111;SDS011;66064;50.226;14.344;2023-09-18T04:00:23;18.33;;;16.05;;
77111;SDS011;66064;50.226;14.344;2023-09-18T04:02:49;21.67;;;19.65;;
77111;SDS011;66064;50.226;14.344;2023-09-18T04:05:16;19.35;;;17.35;;
77111;SDS011;66064;50.226;14.344;2023-09-18T04:07:42;19.40;;;17.48;;
77111;SDS011;66064;50.226;14.344;2023-09-18T04:10:12;21.55;;;19.45;;
77111;SDS011;66064;50.226;14.344;2023-09-18T04:12:51;22.70;;;16.17;;
77111;SDS011;66064;50.226;14.344;2023-09-18T04:15:18;19.70;;;17.52;;
77111;SDS011;66064;50.226;14.344;2023-09-18T04:17:45;19.80;;;16.33;;
77111;SDS011;66064;50.226;14.344;2023-09-18T04:20:11;23.13;;;19.63;;
77111;SDS011;66064;50.226;14.344;2023-09-18T04:22:47;21.85;;;19.65;;
77111;SDS011;66064;50.226;14.344;2023-09-18T04:25:18;20.15;;;15.68;;
77111;SDS011;66064;50.226;14.344;2023-09-18T04:27:49;20.90;;;18.80;;
77111;SDS011;66064;50.226;14.344;2023-09-18T04:30:18;23.77;;;19.08;;
77111;SDS011;66064;50.226;14.344;2023-09-18T04:32:45;23.88;;;20.58;;
77111;SDS011;66064;50.226;14.344;2023-09-18T04:35:12;24.27;;;18.50;;
77111;SDS011;66064;50.226;14.344;2023-09-18T04:37:40;21.80;;;19.50;;
77111;SDS011;66064;50.226;14.344;2023-09-18T04:40:09;21.08;;;18.90;;
77111;SDS011;66064;50.226;14.344;2023-09-18T04:42:36;22.38;;;19.70;;
77111;SDS011;66064;50.226;14.344;2023-09-18T04:45:02;23.25;;;20.77;;
77111;SDS011;66064;50.226;14.344;2023-09-18T04:47:29;21.88;;;19.30;;
77111;SDS011;66064;50.226;14.344;2023-09-18T04:49:55;21.90;;;18.05;;
77111;SDS011;66064;50.226;14.344;2023-09-18T04:52:21;21.15;;;18.95;;
77111;SDS011;66064;50.226;14.344;2023-09-18T04:54:47;21.95;;;19.00;;
77111;SDS011;66064;50.226;14.344;2023-09-18T04:57:13;23.23;;;19.02;;
77111;SDS011;66064;50.226;14.344;2023-09-18T04:59:39;22.50;;;20.13;;
77111;SDS011;66064;50.226;14.344;2023-09-18T05:02:06;20.95;;;18.80;;
77111;SDS011;66064;50.226;14.344;2023-09-18T05:04:32;21.23;;;19.00;;
77111;SDS011;66064;50.226;14.344;2023-09-18T05:06:57;20.50;;;17.27;;
77111;SDS011;66064;50.226;14.344;2023-09-18T05:09:27;21.02;;;18.20;;
77111;SDS011;66064;50.226;14.344;2023-09-18T05:11:53;22.33;;;18.13;;
77111;SDS011;66064;50.226;14.344;2023-09-18T05:14:19;20.45;;;17.85;;
77111;SDS011;66064;50.226;14.344;2023-09-18T05:16:44;22.85;;;19.17;;
77111;SDS011;66064;50.226;14.344;2023-09-18T05:19:11;21.15;;;18.92;;
77111;SDS011;66064;50.226;14.344;2023-09-18T05:21:37;22.38;;;18.52;;
77111;SDS011;66064;50.226;14.344;2023-09-18T05:24:04;19.25;;;17.05;;
77111;SDS011;66064;50.226;14.344;2023-09-18T05:26:30;19.50;;;17.42;;
77111;SDS011;66064;50.226;14.344;2023-09-18T05:28:56;17.27;;;15.55;;
77111;SDS011;66064;50.226;14.344;2023-09-18T05:31:23;20.38;;;16.52;;
77111;SDS011;66064;50.226;14.344;2023-09-18T05:33:49;16.40;;;14.18;;
77111;SDS011;66064;50.226;14.344;2023-09-18T05:36:16;16.13;;;14.52;;
77111;SDS011;66064;50.226;14.344;2023-09-18T05:38:42;16.58;;;14.88;;
77111;SDS011;66064;50.226;14.344;2023-09-18T05:43:37;15.27;;;13.65;;
77111;SDS011;66064;50.226;14.344;2023-09-18T05:46:03;14.45;;;12.68;;
77111;SDS011;66064;50.226;14.344;2023-09-18T05:48:29;14.27;;;12.90;;
77111;SDS011;66064;50.226;14.344;2023-09-18T05:50:55;14.93;;;13.40;;
77111;SDS011;66064;50.226;14.344;2023-09-18T05:53:21;14.02;;;12.57;;
77111;SDS011;66064;50.226;14.344;2023-09-18T05:55:47;14.98;;;12.57;;
77111;SDS011;66064;50.226;14.344;2023-09-18T05:58:13;15.38;;;13.77;;
77111;SDS011;66064;50.226;14.344;2023-09-18T06:00:39;14.63;;;13.13;;
77111;SDS011;66064;50.226;14.344;2023-09-18T06:03:05;15.68;;;14.15;;
77111;SDS011;66064;50.226;14.344;2023-09-18T06:05:32;15.52;;;13.70;;
77111;SDS011;66064;50.226;14.344;2023-09-18T06:08:00;14.43;;;13.05;;
77111;SDS011;66064;50.226;14.344;2023-09-18T06:10:26;13.40;;;12.07;;
77111;SDS011;66064;50.226;14.344;2023-09-18T06:12:52;14.98;;;11.95;;
77111;SDS011;66064;50.226;14.344;2023-09-18T06:15:18;13.77;;;11.75;;
77111;SDS011;66064;50.226;14.344;2023-09-18T06:17:44;12.75;;;11.45;;
77111;SDS011;66064;50.226;14.344;2023-09-18T06:20:10;11.52;;;10.32;;
77111;SDS011;66064;50.226;14.344;2023-09-18T06:22:41;13.52;;;11.02;;
77111;SDS011;66064;50.226;14.344;2023-09-18T06:25:08;11.80;;;10.32;;
77111;SDS011;66064;50.226;14.344;2023-09-18T06:27:39;12.35;;;10.73;;
77111;SDS011;66064;50.226;14.344;2023-09-18T06:30:05;12.88;;;9.90;;
77111;SDS011;66064;50.226;14.344;2023-09-18T06:32:32;11.15;;;8.68;;
77111;SDS011;66064;50.226;14.344;2023-09-18T06:34:58;10.30;;;9.15;;
77111;SDS011;66064;50.226;14.344;2023-09-18T06:37:25;10.50;;;9.40;;
77111;SDS011;66064;50.226;14.344;2023-09-18T06:39:51;10.30;;;9.00;;
77111;SDS011;66064;50.226;14.344;2023-09-18T06:42:17;10.43;;;9.25;;
77111;SDS011;66064;50.226;14.344;2023-09-18T06:44:44;9.20;;;8.30;;
77111;SDS011;66064;50.226;14.344;2023-09-18T06:47:11;11.23;;;8.80;;
77111;SDS011;66064;50.226;14.344;2023-09-18T06:49:37;10.65;;;9.10;;
77111;SDS011;66064;50.226;14.344;2023-09-18T06:52:03;9.70;;;8.70;;
77111;SDS011;66064;50.226;14.344;2023-09-18T06:54:30;10.68;;;9.10;;
77111;SDS011;66064;50.226;14.344;2023-09-18T06:56:56;10.05;;;8.32;;
77111;SDS011;66064;50.226;14.344;2023-09-18T06:59:22;11.98;;;8.05;;
77111;SDS011;66064;50.226;14.344;2023-09-18T07:01:48;10.00;;;9.00;;
77111;SDS011;66064;50.226;14.344;2023-09-18T07:04:14;9.40;;;8.40;;
77111;SDS011;66064;50.226;14.344;2023-09-18T07:06:40;10.10;;;8.75;;
77111;SDS011;66064;50.226;14.344;2023-09-18T07:09:06;9.32;;;7.90;;
77111;SDS011;66064;50.226;14.344;2023-09-18T07:11:33;8.70;;;7.80;;
77111;SDS011;66064;50.226;14.344;2023-09-18T07:13:59;9.45;;;7.85;;
77111;SDS011;66064;50.226;14.344;2023-09-18T07:16:26;11.02;;;8.38;;
77111;SDS011;66064;50.226;14.344;2023-09-18T07:18:52;9.55;;;7.88;;
77111;SDS011;66064;50.226;14.344;2023-09-18T07:21:18;8.68;;;7.68;;
77111;SDS011;66064;50.226;14.344;2023-09-18T07:23:45;8.20;;;7.38;;
77111;SDS011;66064;50.226;14.344;2023-09-18T07:26:13;8.63;;;7.38;;
77111;SDS011;66064;50.226;14.344;2023-09-18T07:28:39;8.73;;;6.68;;
77111;SDS011;66064;50.226;14.344;2023-09-18T07:31:07;8.60;;;7.20;;
77111;SDS011;66064;50.226;14.344;2023-09-18T07:33:34;8.75;;;6.82;;
77111;SDS011;66064;50.226;14.344;2023-09-18T07:36:01;8.35;;;6.35;;
77111;SDS011;66064;50.226;14.344;2023-09-18T07:38:26;7.50;;;6.70;;
77111;SDS011;66064;50.226;14.344;2023-09-18T07:40:53;7.22;;;6.50;;
77111;SDS011;66064;50.226;14.344;2023-09-18T07:43:21;11.98;;;6.80;;
77111;SDS011;66064;50.226;14.344;2023-09-18T07:45:49;8.65;;;6.28;;
77111;SDS011;66064;50.226;14.344;2023-09-18T07:48:15;7.97;;;6.25;;
77111;SDS011;66064;50.226;14.344;2023-09-18T07:50:45;8.18;;;6.03;;
77111;SDS011;66064;50.226;14.344;2023-09-18T07:53:11;7.25;;;6.25;;
77111;SDS011;66064;50.226;14.344;2023-09-18T07:55:37;8.25;;;6.63;;
77111;SDS011;66064;50.226;14.344;2023-09-18T07:58:04;7.88;;;6.82;;
77111;SDS011;66064;50.226;14.344;2023-09-18T08:00:31;6.85;;;6.15;;
77111;SDS011;66064;50.226;14.344;2023-09-18T08:02:58;8.32;;;6.82;;
77111;SDS011;66064;50.226;14.344;2023-09-18T08:05:27;7.47;;;6.68;;
77111;SDS011;66064;50.226;14.344;2023-09-18T08:07:54;7.35;;;6.47;;
77111;SDS011;66064;50.226;14.344;2023-09-18T08:10:30;7.85;;;6.65;;
77111;SDS011;66064;50.226;14.344;2023-09-18T08:12:56;10.73;;;5.97;;
77111;SDS011;66064;50.226;14.344;2023-09-18T08:15:22;6.85;;;5.85;;
77111;SDS011;66064;50.226;14.344;2023-09-18T08:17:48;8.02;;;6.20;;
77111;SDS011;66064;50.226;14.344;2023-09-18T08:20:15;8.15;;;6.18;;
77111;SDS011;66064;50.226;14.344;2023-09-18T08:22:42;7.53;;;6.10;;
77111;SDS011;66064;50.226;14.344;2023-09-18T08:25:09;7.22;;;5.60;;
77111;SDS011;66064;50.226;14.344;2023-09-18T08:27:39;6.70;;;5.70;;
77111;SDS011;66064;50.226;14.344;2023-09-18T08:30:08;6.72;;;6.05;;
77111;SDS011;66064;50.226;14.344;2023-09-18T08:32:36;10.00;;;5.97;;
77111;SDS011;66064;50.226;14.344;2023-09-18T08:35:03;7.53;;;5.93;;
77111;SDS011;66064;50.226;14.344;2023-09-18T08:37:30;7.95;;;5.55;;
77111;SDS011;66064;50.226;14.344;2023-09-18T08:39:57;6.68;;;5.65;;
77111;SDS011;66064;50.226;14.344;2023-09-18T08:42:23;6.88;;;5.70;;
77111;SDS011;66064;50.226;14.344;2023-09-18T08:44:51;8.15;;;5.65;;
77111;SDS011;66064;50.226;14.344;2023-09-18T08:47:19;7.25;;;5.10;;
77111;SDS011;66064;50.226;14.344;2023-09-18T08:49:46;6.93;;;5.10;;
77111;SDS011;66064;50.226;14.344;2023-09-18T08:52:16;6.78;;;5.38;;
77111;SDS011;66064;50.226;14.344;2023-09-18T08:54:43;8.18;;;6.15;;
77111;SDS011;66064;50.226;14.344;2023-09-18T08:57:11;6.88;;;5.60;;
77111;SDS011;66064;50.226;14.344;2023-09-18T08:59:38;10.75;;;6.63;;
77111;SDS011;66064;50.226;14.344;2023-09-18T09:02:07;7.07;;;5.45;;
77111;SDS011;66064;50.226;14.344;2023-09-18T09:04:37;7.55;;;5.15;;
77111;SDS011;66064;50.226;14.344;2023-09-18T09:07:04;7.13;;;5.55;;
77111;SDS011;66064;50.226;14.344;2023-09-18T09:09:30;7.07;;;5.25;;
77111;SDS011;66064;50.226;14.344;2023-09-18T09:11:56;6.85;;;5.20;;
77111;SDS011;66064;50.226;14.344;2023-09-18T09:14:23;8.00;;;5.95;;
77111;SDS011;66064;50.226;14.344;2023-09-18T09:16:54;8.45;;;5.97;;
77111;SDS011;66064;50.226;14.344;2023-09-18T09:19:29;6.63;;;5.10;;
77111;SDS011;66064;50.226;14.344;2023-09-18T09:21:57;7.35;;;5.85;;
77111;SDS011;66064;50.226;14.344;2023-09-18T09:24:47;7.53;;;6.20;;
77111;SDS011;66064;50.226;14.344;2023-09-18T09:27:13;6.30;;;5.65;;
77111;SDS011;66064;50.226;14.344;2023-09-18T09:29:40;7.45;;;6.07;;
77111;SDS011;66064;50.226;14.344;2023-09-18T09:32:13;8.13;;;5.60;;
77111;SDS011;66064;50.226;14.344;2023-09-18T09:34:40;7.07;;;5.53;;
77111;SDS011;66064;50.226;14.344;2023-09-18T09:37:07;6.80;;;5.35;;
77111;SDS011;66064;50.226;14.344;2023-09-18T09:39:33;9.02;;;5.45;;
77111;SDS011;66064;50.226;14.344;2023-09-18T09:42:00;7.72;;;5.18;;
77111;SDS011;66064;50.226;14.344;2023-09-18T09:44:32;8.50;;;5.35;;
77111;SDS011;66064;50.226;14.344;2023-09-18T09:46:59;6.95;;;5.15;;
77111;SDS011;66064;50.226;14.344;2023-09-18T09:49:25;5.18;;;4.47;;
77111;SDS011;66064;50.226;14.344;2023-09-18T09:51:59;6.53;;;5.13;;
77111;SDS011;66064;50.226;14.344;2023-09-18T09:54:32;7.72;;;5.00;;
77111;SDS011;66064;50.226;14.344;2023-09-18T09:57:05;5.38;;;4.28;;
77111;SDS011;66064;50.226;14.344;2023-09-18T09:59:31;7.45;;;4.95;;
77111;SDS011;66064;50.226;14.344;2023-09-18T10:02:00;5.28;;;4.38;;
77111;SDS011;66064;50.226;14.344;2023-09-18T10:04:28;5.78;;;4.68;;
77111;SDS011;66064;50.226;14.344;2023-09-18T10:07:15;5.75;;;5.05;;
77111;SDS011;66064;50.226;14.344;2023-09-18T10:12:12;6.88;;;4.80;;
77111;SDS011;66064;50.226;14.344;2023-09-18T10:14:46;5.80;;;4.90;;
77111;SDS011;66064;50.226;14.344;2023-09-18T10:17:16;6.10;;;5.03;;
77111;SDS011;66064;50.226;14.344;2023-09-18T10:22:43;5.60;;;4.22;;
77111;SDS011;66064;50.226;14.344;2023-09-18T10:25:23;5.80;;;4.50;;
77111;SDS011;66064;50.226;14.344;2023-09-18T10:27:53;5.72;;;4.22;;
77111;SDS011;66064;50.226;14.344;2023-09-18T10:30:24;6.45;;;3.92;;
77111;SDS011;66064;50.226;14.344;2023-09-18T10:32:52;5.07;;;3.85;;
77111;SDS011;66064;50.226;14.344;2023-09-18T10:35:19;6.57;;;3.97;;
77111;SDS011;66064;50.226;14.344;2023-09-18T10:37:46;5.25;;;3.92;;
77111;SDS011;66064;50.226;14.344;2023-09-18T10:40:17;5.10;;;3.55;;
77111;SDS011;66064;50.226;14.344;2023-09-18T10:42:43;4.90;;;3.58;;
77111;SDS011;66064;50.226;14.344;2023-09-18T10:45:12;5.00;;;3.47;;
77111;SDS011;66064;50.226;14.344;2023-09-18T10:47:41;4.50;;;3.47;;
77111;SDS011;66064;50.226;14.344;2023-09-18T10:50:22;3.80;;;3.30;;
77111;SDS011;66064;50.226;14.344;2023-09-18T10:52:52;5.10;;;3.25;;
77111;SDS011;66064;50.226;14.344;2023-09-18T10:55:19;3.97;;;3.25;;
77111;SDS011;66064;50.226;14.344;2023-09-18T10:57:53;5.07;;;3.65;;
77111;SDS011;66064;50.226;14.344;2023-09-18T11:02:49;4.05;;;3.30;;
77111;SDS011;66064;50.226;14.344;2023-09-18T11:05:29;7.55;;;3.40;;
77111;SDS011;66064;50.226;14.344;2023-09-18T11:13:45;4.75;;;3.45;;
77111;SDS011;66064;50.226;14.344;2023-09-18T11:21:32;3.90;;;3.20;;
77111;SDS011;66064;50.226;14.344;2023-09-18T11:26:47;4.43;;;3.33;;
77111;SDS011;66064;50.226;14.344;2023-09-18T11:29:16;4.97;;;3.45;;
77111;SDS011;66064;50.226;14.344;2023-09-18T11:36:52;5.07;;;3.72;;
77111;SDS011;66064;50.226;14.344;2023-09-18T11:44:35;5.20;;;3.35;;
77111;SDS011;66064;50.226;14.344;2023-09-18T11:47:18;5.45;;;3.58;;
77111;SDS011;66064;50.226;14.344;2023-09-18T11:49:50;5.55;;;3.90;;
77111;SDS011;66064;50.226;14.344;2023-09-18T11:52:28;7.80;;;3.97;;
77111;SDS011;66064;50.226;14.344;2023-09-18T11:54:56;4.72;;;4.00;;
77111;SDS011;66064;50.226;14.344;2023-09-18T11:57:24;7.47;;;4.45;;
77111;SDS011;66064;50.226;14.344;2023-09-18T11:59:51;6.75;;;4.35;;
77111;SDS011;66064;50.226;14.344;2023-09-18T12:02:30;4.93;;;3.85;;
77111;SDS011;66064;50.226;14.344;2023-09-18T12:05:10;5.55;;;3.95;;
77111;SDS011;66064;50.226;14.344;2023-09-18T12:07:40;4.75;;;3.60;;
77111;SDS011;66064;50.226;14.344;2023-09-18T12:10:10;5.07;;;3.97;;
77111;SDS011;66064;50.226;14.344;2023-09-18T12:12:38;4.70;;;4.10;;
77111;SDS011;66064;50.226;14.344;2023-09-18T12:15:04;7.03;;;4.00;;
77111;SDS011;66064;50.226;14.344;2023-09-18T12:17:32;6.93;;;4.28;;
77111;SDS011;66064;50.226;14.344;2023-09-18T12:20:00;5.00;;;3.90;;
77111;SDS011;66064;50.226;14.344;2023-09-18T12:22:27;5.85;;;4.10;;
77111;SDS011;66064;50.226;14.344;2023-09-18T12:27:40;5.53;;;3.80;;
77111;SDS011;66064;50.226;14.344;2023-09-18T12:30:07;5.80;;;3.47;;
77111;SDS011;66064;50.226;14.344;2023-09-18T12:32:37;5.95;;;3.95;;
77111;SDS011;66064;50.226;14.344;2023-09-18T12:35:07;5.63;;;3.67;;
77111;SDS011;66064;50.226;14.344;2023-09-18T12:37:39;5.13;;;3.70;;
77111;SDS011;66064;50.226;14.344;2023-09-18T12:40:06;5.55;;;3.97;;
77111;SDS011;66064;50.226;14.344;2023-09-18T12:42:48;4.80;;;3.80;;
77111;SDS011;66064;50.226;14.344;2023-09-18T12:45:15;5.45;;;3.90;;
77111;SDS011;66064;50.226;14.344;2023-09-18T12:47:41;6.93;;;4.32;;
77111;SDS011;66064;50.226;14.344;2023-09-18T12:50:09;6.80;;;4.22;;
77111;SDS011;66064;50.226;14.344;2023-09-18T12:52:40;8.63;;;4.35;;
77111;SDS011;66064;50.226;14.344;2023-09-18T12:55:07;4.93;;;4.10;;
77111;SDS011;66064;50.226;14.344;2023-09-18T12:57:34;6.18;;;4.45;;
77111;SDS011;66064;50.226;14.344;2023-09-18T13:00:07;5.95;;;4.32;;
77111;SDS011;66064;50.226;14.344;2023-09-18T13:02:38;5.45;;;4.10;;
77111;SDS011;66064;50.226;14.344;2023-09-18T13:05:05;7.53;;;4.75;;
77111;SDS011;66064;50.226;14.344;2023-09-18T13:07:42;6.43;;;4.47;;
77111;SDS011;66064;50.226;14.344;2023-09-18T13:10:10;5.28;;;4.05;;
77111;SDS011;66064;50.226;14.344;2023-09-18T13:12:41;7.93;;;4.28;;
77111;SDS011;66064;50.226;14.344;2023-09-18T13:15:09;6.30;;;4.22;;
77111;SDS011;66064;50.226;14.344;2023-09-18T13:17:38;7.13;;;4.30;;
77111;SDS011;66064;50.226;14.344;2023-09-18T13:20:08;5.15;;;4.40;;
77111;SDS011;66064;50.226;14.344;2023-09-18T13:22:36;5.80;;;4.60;;
77111;SDS011;66064;50.226;14.344;2023-09-18T13:25:02;6.40;;;4.28;;
77111;SDS011;66064;50.226;14.344;2023-09-18T13:27:29;6.93;;;4.38;;
77111;SDS011;66064;50.226;14.344;2023-09-18T13:29:55;4.93;;;4.15;;
77111;SDS011;66064;50.226;14.344;2023-09-18T13:32:22;5.00;;;4.50;;
77111;SDS011;66064;50.226;14.344;2023-09-18T13:34:48;5.30;;;4.20;;
77111;SDS011;66064;50.226;14.344;2023-09-18T13:37:14;6.80;;;4.47;;
77111;SDS011;66064;50.226;14.344;2023-09-18T13:39:42;7.70;;;4.72;;
77111;SDS011;66064;50.226;14.344;2023-09-18T13:42:08;4.95;;;4.38;;
77111;SDS011;66064;50.226;14.344;2023-09-18T13:44:34;6.75;;;4.68;;
77111;SDS011;66064;50.226;14.344;2023-09-18T13:47:02;6.68;;;4.50;;
77111;SDS011;66064;50.226;14.344;2023-09-18T13:49:29;7.53;;;5.18;;
77111;SDS011;66064;50.226;14.344;2023-09-18T13:51:55;5.82;;;4.78;;
77111;SDS011;66064;50.226;14.344;2023-09-18T13:54:22;6.57;;;4.55;;
77111;SDS011;66064;50.226;14.344;2023-09-18T13:56:48;7.47;;;5.43;;
77111;SDS011;66064;50.226;14.344;2023-09-18T13:59:14;4.90;;;4.40;;
77111;SDS011;66064;50.226;14.344;2023-09-18T14:01:40;6.18;;;4.45;;
77111;SDS011;66064;50.226;14.344;2023-09-18T14:04:05;5.35;;;4.85;;
77111;SDS011;66064;50.226;14.344;2023-09-18T14:06:32;6.22;;;5.07;;
77111;SDS011;66064;50.226;14.344;2023-09-18T14:08:58;6.15;;;4.80;;
77111;SDS011;66064;50.226;14.344;2023-09-18T14:11:24;4.78;;;4.22;;
77111;SDS011;66064;50.226;14.344;2023-09-18T14:13:49;8.95;;;4.72;;
77111;SDS011;66064;50.226;14.344;2023-09-18T14:16:16;7.03;;;4.78;;
77111;SDS011;66064;50.226;14.344;2023-09-18T14:18:43;8.18;;;4.47;;
77111;SDS011;66064;50.226;14.344;2023-09-18T14:21:11;5.95;;;4.53;;
77111;SDS011;66064;50.226;14.344;2023-09-18T14:23:44;5.45;;;4.50;;
77111;SDS011;66064;50.226;14.344;2023-09-18T14:26:17;7.45;;;4.85;;
77111;SDS011;66064;50.226;14.344;2023-09-18T14:28:50;5.35;;;4.80;;
77111;SDS011;66064;50.226;14.344;2023-09-18T14:31:23;5.90;;;4.88;;
77111;SDS011;66064;50.226;14.344;2023-09-18T14:33:53;7.03;;;4.55;;
77111;SDS011;66064;50.226;14.344;2023-09-18T14:36:24;5.25;;;4.75;;
77111;SDS011;66064;50.226;14.344;2023-09-18T14:38:50;5.45;;;4.88;;
77111;SDS011;66064;50.226;14.344;2023-09-18T14:41:16;4.75;;;4.25;;
77111;SDS011;66064;50.226;14.344;2023-09-18T14:43:44;6.70;;;4.93;;
77111;SDS011;66064;50.226;14.344;2023-09-18T14:46:22;5.70;;;4.45;;
77111;SDS011;66064;50.226;14.344;2023-09-18T14:49:01;5.28;;;4.78;;
77111;SDS011;66064;50.226;14.344;2023-09-18T14:51:27;7.18;;;5.43;;
77111;SDS011;66064;50.226;14.344;2023-09-18T14:53:56;7.45;;;4.65;;
77111;SDS011;66064;50.226;14.344;2023-09-18T14:56:23;5.78;;;4.55;;
77111;SDS011;66064;50.226;14.344;2023-09-18T14:58:49;8.18;;;4.97;;
77111;SDS011;66064;50.226;14.344;2023-09-18T15:01:18;8.43;;;5.25;;
77111;SDS011;66064;50.226;14.344;2023-09-18T15:03:52;5.50;;;4.60;;
77111;SDS011;66064;50.226;14.344;2023-09-18T15:06:24;7.20;;;4.55;;
77111;SDS011;66064;50.226;14.344;2023-09-18T15:08:55;7.55;;;5.10;;
77111;SDS011;66064;50.226;14.344;2023-09-18T15:11:25;6.22;;;5.00;;